sensor_id;sensor_type;location;lat;lon;timestamp;pressure;altitude;pressure_sealevel;temperature;humidity
28510;BME280;15723;55.684;37.928;2022-11-02T00:00:31;99915.13;;;3.46;65.20
28510;BME280;15723;55.684;37.928;2022-11-02T00:02:58;99921.06;;;3.54;65.06
28510;BME280;15723;55.684;37.928;2022-11-02T00:05:24;99915.81;;;3.76;64.35
28510;BME280;15723;55.684;37.928;2022-11-02T00:07:50;99919.50;;;3.73;64.46
28510;BME280;15723;55.684;37.928;2022-11-02T00:10:19;99920.91;;;3.59;64.83
28510;BME280;15723;55.684;37.928;2022-11-02T00:12:45;99916.47;;;4.06;63.38
28510;BME280;15723;55.684;37.928;2022-11-02T00:15:12;99916.00;;;3.47;64.90
28510;BME280;15723;55.684;37.928;2022-11-02T00:17:39;99919.31;;;3.53;64.73
28510;BME280;15723;55.684;37.928;2022-11-02T00:20:05;99923.66;;;3.57;64.77
28510;BME280;15723;55.684;37.928;2022-11-02T00:22:37;99911.75;;;3.64;64.81
28510;BME280;15723;55.684;37.928;2022-11-02T00:25:03;99905.69;;;3.59;64.52
28510;BME280;15723;55.684;37.928;2022-11-02T00:27:31;99911.66;;;3.42;65.01
28510;BME280;15723;55.684;37.928;2022-11-02T00:29:58;99916.50;;;3.31;65.67
28510;BME280;15723;55.684;37.928;2022-11-02T00:32:25;99910.25;;;3.31;65.39
28510;BME280;15723;55.684;37.928;2022-11-02T00:34:51;99909.75;;;3.46;65.12
28510;BME280;15723;55.684;37.928;2022-11-02T00:37:17;99915.19;;;3.18;65.91
28510;BME280;15723;55.684;37.928;2022-11-02T00:39:43;99903.53;;;3.19;66.11
28510;BME280;15723;55.684;37.928;2022-11-02T00:42:09;99903.25;;;3.27;66.04
28510;BME280;15723;55.684;37.928;2022-11-02T00:44:36;99898.41;;;3.38;65.42
28510;BME280;15723;55.684;37.928;2022-11-02T00:47:02;99898.06;;;3.47;65.26
28510;BME280;15723;55.684;37.928;2022-11-02T00:49:28;99899.22;;;3.65;65.20
28510;BME280;15723;55.684;37.928;2022-11-02T00:51:54;99895.72;;;3.38;65.55
28510;BME280;15723;55.684;37.928;2022-11-02T00:54:21;99900.97;;;3.41;65.74
28510;BME280;15723;55.684;37.928;2022-11-02T00:56:51;99895.69;;;3.13;65.87
28510;BME280;15723;55.684;37.928;2022-11-02T00:59:17;99897.84;;;3.28;65.78
28510;BME280;15723;55.684;37.928;2022-11-02T01:01:44;99897.41;;;3.16;66.19
28510;BME280;15723;55.684;37.928;2022-11-02T01:04:12;99897.16;;;3.73;64.81
28510;BME280;15723;55.684;37.928;2022-11-02T01:06:42;99898.91;;;3.74;64.74
28510;BME280;15723;55.684;37.928;2022-11-02T01:09:09;99895.53;;;3.67;64.47
28510;BME280;15723;55.684;37.928;2022-11-02T01:11:35;99889.69;;;3.56;64.99
28510;BME280;15723;55.684;37.928;2022-11-02T01:14:02;99888.97;;;3.99;63.88
28510;BME280;15723;55.684;37.928;2022-11-02T01:16:28;99890.63;;;3.55;64.77
28510;BME280;15723;55.684;37.928;2022-11-02T01:18:55;99892.41;;;3.30;65.49
28510;BME280;15723;55.684;37.928;2022-11-02T01:21:21;99881.91;;;3.73;64.39
28510;BME280;15723;55.684;37.928;2022-11-02T01:23:48;99881.41;;;3.62;64.77
28510;BME280;15723;55.684;37.928;2022-11-02T01:26:14;99873.88;;;3.49;65.19
28510;BME280;15723;55.684;37.928;2022-11-02T01:28:40;99868.09;;;3.59;65.10
28510;BME280;15723;55.684;37.928;2022-11-02T01:31:06;99872.50;;;3.37;65.50
28510;BME280;15723;55.684;37.928;2022-11-02T01:33:33;99872.69;;;3.31;65.41
28510;BME280;15723;55.684;37.928;2022-11-02T01:36:03;99869.84;;;3.60;64.75
28510;BME280;15723;55.684;37.928;2022-11-02T01:38:30;99875.00;;;3.66;64.66
28510;BME280;15723;55.684;37.928;2022-11-02T01:40:56;99871.66;;;3.60;64.69
28510;BME280;15723;55.684;37.928;2022-11-02T01:43:28;99872.63;;;3.82;64.35
28510;BME280;15723;55.684;37.928;2022-11-02T01:45:55;99868.97;;;3.85;64.59
28510;BME280;15723;55.684;37.928;2022-11-02T01:48:33;99877.84;;;3.87;64.38
28510;BME280;15723;55.684;37.928;2022-11-02T01:51:01;99872.91;;;3.98;64.56
28510;BME280;15723;55.684;37.928;2022-11-02T01:53:28;99875.84;;;3.92;64.30
28510;BME280;15723;55.684;37.928;2022-11-02T01:55:54;99869.66;;;4.13;63.62
28510;BME280;15723;55.684;37.928;2022-11-02T01:58:21;99874.97;;;3.91;63.60
28510;BME280;15723;55.684;37.928;2022-11-02T02:00:47;99878.13;;;3.79;64.07
28510;BME280;15723;55.684;37.928;2022-11-02T02:03:13;99868.78;;;3.41;65.45
28510;BME280;15723;55.684;37.928;2022-11-02T02:05:53;99874.84;;;3.21;65.56
28510;BME280;15723;55.684;37.928;2022-11-02T02:08:22;99873.19;;;3.67;65.04
28510;BME280;15723;55.684;37.928;2022-11-02T02:10:48;99877.88;;;3.37;65.28
28510;BME280;15723;55.684;37.928;2022-11-02T02:13:15;99875.00;;;3.17;65.31
28510;BME280;15723;55.684;37.928;2022-11-02T02:18:23;99882.22;;;3.14;65.59
28510;BME280;15723;55.684;37.928;2022-11-02T02:21:07;99877.34;;;3.26;65.36
28510;BME280;15723;55.684;37.928;2022-11-02T02:28:54;99882.34;;;3.11;65.78
28510;BME280;15723;55.684;37.928;2022-11-02T02:31:36;99881.97;;;2.96;65.93
28510;BME280;15723;55.684;37.928;2022-11-02T02:39:10;99880.59;;;3.10;66.27
28510;BME280;15723;55.684;37.928;2022-11-02T02:41:42;99883.66;;;3.00;67.10
28510;BME280;15723;55.684;37.928;2022-11-02T02:44:12;99883.31;;;3.35;66.52
28510;BME280;15723;55.684;37.928;2022-11-02T02:46:44;99887.69;;;2.85;68.59
28510;BME280;15723;55.684;37.928;2022-11-02T02:49:14;99886.53;;;3.45;67.13
28510;BME280;15723;55.684;37.928;2022-11-02T02:51:42;99890.38;;;3.11;68.06
28510;BME280;15723;55.684;37.928;2022-11-02T02:54:13;99893.50;;;2.99;68.40
28510;BME280;15723;55.684;37.928;2022-11-02T02:56:46;99893.72;;;2.92;68.29
28510;BME280;15723;55.684;37.928;2022-11-02T02:59:15;99897.50;;;3.12;68.37
28510;BME280;15723;55.684;37.928;2022-11-02T03:01:44;99889.66;;;2.80;68.62
28510;BME280;15723;55.684;37.928;2022-11-02T03:04:10;99889.88;;;3.00;68.24
28510;BME280;15723;55.684;37.928;2022-11-02T03:06:37;99887.16;;;3.27;67.85
28510;BME280;15723;55.684;37.928;2022-11-02T03:14:30;99874.41;;;2.82;67.75
28510;BME280;15723;55.684;37.928;2022-11-02T03:19:29;99886.75;;;3.39;66.78
28510;BME280;15723;55.684;37.928;2022-11-02T03:22:07;99882.75;;;2.99;67.63
28510;BME280;15723;55.684;37.928;2022-11-02T03:24:40;99881.50;;;2.83;67.81
28510;BME280;15723;55.684;37.928;2022-11-02T03:29:39;99876.00;;;2.88;68.43
28510;BME280;15723;55.684;37.928;2022-11-02T03:35:02;99871.50;;;3.14;67.62
28510;BME280;15723;55.684;37.928;2022-11-02T03:40:08;99882.34;;;3.11;67.66
28510;BME280;15723;55.684;37.928;2022-11-02T03:42:38;99879.81;;;3.07;67.68
28510;BME280;15723;55.684;37.928;2022-11-02T03:45:26;99879.09;;;3.27;67.23
28510;BME280;15723;55.684;37.928;2022-11-02T03:47:54;99884.53;;;3.25;67.43
28510;BME280;15723;55.684;37.928;2022-11-02T03:50:22;99881.72;;;2.77;69.34
28510;BME280;15723;55.684;37.928;2022-11-02T03:52:53;99883.78;;;2.69;70.16
28510;BME280;15723;55.684;37.928;2022-11-02T03:55:24;99882.03;;;2.68;70.18
28510;BME280;15723;55.684;37.928;2022-11-02T03:57:52;99882.81;;;2.43;71.24
28510;BME280;15723;55.684;37.928;2022-11-02T04:00:24;99890.41;;;2.29;71.57
28510;BME280;15723;55.684;37.928;2022-11-02T04:03:01;99883.78;;;2.69;70.59
28510;BME280;15723;55.684;37.928;2022-11-02T04:05:33;99879.19;;;2.44;71.57
28510;BME280;15723;55.684;37.928;2022-11-02T04:07:59;99891.88;;;2.39;71.87
28510;BME280;15723;55.684;37.928;2022-11-02T04:10:44;99884.09;;;2.58;71.46
28510;BME280;15723;55.684;37.928;2022-11-02T04:13:29;99886.34;;;2.72;71.11
28510;BME280;15723;55.684;37.928;2022-11-02T04:16:14;99888.09;;;3.51;68.51
28510;BME280;15723;55.684;37.928;2022-11-02T04:18:41;99883.69;;;2.72;70.52
28510;BME280;15723;55.684;37.928;2022-11-02T04:21:27;99888.31;;;2.39;71.83
28510;BME280;15723;55.684;37.928;2022-11-02T04:23:55;99885.19;;;2.53;71.91
28510;BME280;15723;55.684;37.928;2022-11-02T04:26:40;99886.66;;;3.16;69.90
28510;BME280;15723;55.684;37.928;2022-11-02T04:29:06;99884.72;;;2.40;71.87
28510;BME280;15723;55.684;37.928;2022-11-02T04:31:33;99891.41;;;2.53;71.78
28510;BME280;15723;55.684;37.928;2022-11-02T04:33:59;99892.69;;;2.69;71.37
28510;BME280;15723;55.684;37.928;2022-11-02T04:36:29;99884.31;;;3.06;70.00
28510;BME280;15723;55.684;37.928;2022-11-02T04:38:57;99893.38;;;3.02;69.91
28510;BME280;15723;55.684;37.928;2022-11-02T04:41:28;99886.72;;;2.88;70.38
28510;BME280;15723;55.684;37.928;2022-11-02T04:44:26;99881.19;;;2.92;70.07
28510;BME280;15723;55.684;37.928;2022-11-02T04:46:58;99875.66;;;3.23;70.08
28510;BME280;15723;55.684;37.928;2022-11-02T04:49:29;99874.94;;;3.18;70.75
28510;BME280;15723;55.684;37.928;2022-11-02T04:51:55;99882.06;;;3.19;71.64
28510;BME280;15723;55.684;37.928;2022-11-02T04:54:22;99875.69;;;3.48;70.72
28510;BME280;15723;55.684;37.928;2022-11-02T04:56:54;99879.97;;;3.27;71.09
28510;BME280;15723;55.684;37.928;2022-11-02T04:59:22;99874.16;;;3.41;71.44
28510;BME280;15723;55.684;37.928;2022-11-02T05:01:48;99871.38;;;3.18;72.24
28510;BME280;15723;55.684;37.928;2022-11-02T05:04:15;99872.59;;;3.09;72.54
28510;BME280;15723;55.684;37.928;2022-11-02T05:06:41;99857.97;;;3.18;72.79
28510;BME280;15723;55.684;37.928;2022-11-02T05:09:08;99871.25;;;3.47;71.44
28510;BME280;15723;55.684;37.928;2022-11-02T05:11:38;99873.19;;;3.67;71.36
28510;BME280;15723;55.684;37.928;2022-11-02T05:14:04;99872.13;;;3.71;71.13
28510;BME280;15723;55.684;37.928;2022-11-02T05:16:31;99875.22;;;2.84;73.12
28510;BME280;15723;55.684;37.928;2022-11-02T05:18:57;99876.31;;;3.55;72.18
28510;BME280;15723;55.684;37.928;2022-11-02T05:21:24;99877.50;;;2.70;74.83
28510;BME280;15723;55.684;37.928;2022-11-02T05:23:53;99881.25;;;3.17;73.81
28510;BME280;15723;55.684;37.928;2022-11-02T05:26:19;99871.00;;;3.53;72.08
28510;BME280;15723;55.684;37.928;2022-11-02T05:28:47;99874.00;;;3.69;71.56
28510;BME280;15723;55.684;37.928;2022-11-02T05:31:16;99873.16;;;3.92;71.07
28510;BME280;15723;55.684;37.928;2022-11-02T05:33:43;99879.59;;;2.60;74.80
28510;BME280;15723;55.684;37.928;2022-11-02T05:36:13;99878.84;;;3.09;74.52
28510;BME280;15723;55.684;37.928;2022-11-02T05:38:44;99873.94;;;3.70;71.88
28510;BME280;15723;55.684;37.928;2022-11-02T05:41:11;99873.00;;;3.71;71.39
28510;BME280;15723;55.684;37.928;2022-11-02T05:43:39;99872.06;;;3.49;71.54
28510;BME280;15723;55.684;37.928;2022-11-02T05:46:07;99878.88;;;3.33;71.83
28510;BME280;15723;55.684;37.928;2022-11-02T05:48:33;99877.69;;;3.66;71.38
28510;BME280;15723;55.684;37.928;2022-11-02T05:51:01;99875.03;;;2.64;74.17
28510;BME280;15723;55.684;37.928;2022-11-02T05:53:28;99875.28;;;2.82;73.66
28510;BME280;15723;55.684;37.928;2022-11-02T05:55:59;99877.16;;;2.53;72.85
28510;BME280;15723;55.684;37.928;2022-11-02T05:58:25;99877.44;;;2.71;72.37
28510;BME280;15723;55.684;37.928;2022-11-02T06:00:52;99877.19;;;3.05;72.17
28510;BME280;15723;55.684;37.928;2022-11-02T06:03:18;99867.13;;;3.12;71.31
28510;BME280;15723;55.684;37.928;2022-11-02T06:05:45;99868.44;;;3.00;71.78
28510;BME280;15723;55.684;37.928;2022-11-02T06:08:13;99869.75;;;3.13;71.71
28510;BME280;15723;55.684;37.928;2022-11-02T06:10:39;99868.53;;;2.71;72.36
28510;BME280;15723;55.684;37.928;2022-11-02T06:13:08;99872.84;;;2.75;72.69
28510;BME280;15723;55.684;37.928;2022-11-02T06:15:35;99866.50;;;3.04;71.45
28510;BME280;15723;55.684;37.928;2022-11-02T06:18:01;99873.53;;;2.81;72.30
28510;BME280;15723;55.684;37.928;2022-11-02T06:20:28;99869.13;;;2.79;72.64
28510;BME280;15723;55.684;37.928;2022-11-02T06:22:54;99872.72;;;2.51;72.34
28510;BME280;15723;55.684;37.928;2022-11-02T06:25:20;99871.78;;;3.32;71.66
28510;BME280;15723;55.684;37.928;2022-11-02T06:27:55;99881.75;;;3.78;70.27
28510;BME280;15723;55.684;37.928;2022-11-02T06:30:25;99882.25;;;3.88;68.61
28510;BME280;15723;55.684;37.928;2022-11-02T06:32:52;99874.31;;;4.08;68.57
28510;BME280;15723;55.684;37.928;2022-11-02T06:35:20;99865.34;;;4.54;67.50
28510;BME280;15723;55.684;37.928;2022-11-02T06:37:46;99858.13;;;4.77;66.53
28510;BME280;15723;55.684;37.928;2022-11-02T06:40:12;99863.59;;;4.53;67.10
28510;BME280;15723;55.684;37.928;2022-11-02T06:42:39;99862.13;;;4.45;66.21
28510;BME280;15723;55.684;37.928;2022-11-02T06:45:05;99860.25;;;4.90;65.49
28510;BME280;15723;55.684;37.928;2022-11-02T06:47:32;99863.03;;;5.09;64.58
28510;BME280;15723;55.684;37.928;2022-11-02T06:49:59;99861.47;;;5.03;64.76
28510;BME280;15723;55.684;37.928;2022-11-02T06:52:26;99865.09;;;4.60;64.83
28510;BME280;15723;55.684;37.928;2022-11-02T06:54:52;99874.41;;;4.52;64.34
28510;BME280;15723;55.684;37.928;2022-11-02T06:57:18;99859.75;;;4.81;65.35
28510;BME280;15723;55.684;37.928;2022-11-02T06:59:45;99869.53;;;4.61;65.30
28510;BME280;15723;55.684;37.928;2022-11-02T07:02:11;99867.66;;;4.63;65.19
28510;BME280;15723;55.684;37.928;2022-11-02T07:04:37;99878.75;;;4.32;65.76
28510;BME280;15723;55.684;37.928;2022-11-02T07:07:04;99875.81;;;4.38;65.28
28510;BME280;15723;55.684;37.928;2022-11-02T07:09:30;99867.19;;;4.74;64.42
28510;BME280;15723;55.684;37.928;2022-11-02T07:11:57;99869.41;;;4.86;64.21
28510;BME280;15723;55.684;37.928;2022-11-02T07:14:23;99868.84;;;5.20;63.85
28510;BME280;15723;55.684;37.928;2022-11-02T07:16:49;99875.19;;;4.97;64.09
28510;BME280;15723;55.684;37.928;2022-11-02T07:19:15;99874.44;;;4.94;63.81
28510;BME280;15723;55.684;37.928;2022-11-02T07:21:41;99879.97;;;4.69;63.88
28510;BME280;15723;55.684;37.928;2022-11-02T07:24:08;99870.97;;;5.12;62.90
28510;BME280;15723;55.684;37.928;2022-11-02T07:26:34;99884.88;;;4.80;63.40
28510;BME280;15723;55.684;37.928;2022-11-02T07:29:00;99891.47;;;4.72;64.10
28510;BME280;15723;55.684;37.928;2022-11-02T07:31:26;99889.47;;;4.99;62.75
28510;BME280;15723;55.684;37.928;2022-11-02T07:33:52;99885.22;;;5.14;62.28
28510;BME280;15723;55.684;37.928;2022-11-02T07:36:19;99886.03;;;5.16;62.36
28510;BME280;15723;55.684;37.928;2022-11-02T07:38:45;99880.03;;;5.31;61.82
28510;BME280;15723;55.684;37.928;2022-11-02T07:41:11;99892.94;;;5.44;60.73
28510;BME280;15723;55.684;37.928;2022-11-02T07:43:37;99894.84;;;4.99;61.82
28510;BME280;15723;55.684;37.928;2022-11-02T07:46:24;99901.69;;;4.86;61.97
28510;BME280;15723;55.684;37.928;2022-11-02T07:48:50;99909.00;;;5.25;61.09
28510;BME280;15723;55.684;37.928;2022-11-02T07:51:17;99896.56;;;5.22;61.40
28510;BME280;15723;55.684;37.928;2022-11-02T07:53:43;99895.72;;;5.00;61.34
28510;BME280;15723;55.684;37.928;2022-11-02T07:56:09;99885.66;;;5.46;60.60
28510;BME280;15723;55.684;37.928;2022-11-02T07:58:36;99894.47;;;5.49;59.95
28510;BME280;15723;55.684;37.928;2022-11-02T08:01:02;99882.97;;;5.66;59.87
28510;BME280;15723;55.684;37.928;2022-11-02T08:03:28;99894.69;;;5.02;60.46
28510;BME280;15723;55.684;37.928;2022-11-02T08:05:55;99899.69;;;5.12;59.92
28510;BME280;15723;55.684;37.928;2022-11-02T08:08:23;99889.88;;;5.11;60.51
28510;BME280;15723;55.684;37.928;2022-11-02T08:10:50;99886.00;;;5.99;59.11
28510;BME280;15723;55.684;37.928;2022-11-02T08:13:18;99891.53;;;5.96;59.17
28510;BME280;15723;55.684;37.928;2022-11-02T08:15:47;99899.25;;;5.43;59.71
28510;BME280;15723;55.684;37.928;2022-11-02T08:18:15;99887.56;;;5.64;58.82
28510;BME280;15723;55.684;37.928;2022-11-02T08:20:41;99894.41;;;5.51;59.73
28510;BME280;15723;55.684;37.928;2022-11-02T08:23:08;99889.03;;;5.30;59.98
28510;BME280;15723;55.684;37.928;2022-11-02T08:25:35;99886.88;;;5.39;59.74
28510;BME280;15723;55.684;37.928;2022-11-02T08:28:02;99889.44;;;5.21;60.13
28510;BME280;15723;55.684;37.928;2022-11-02T08:30:29;99889.00;;;5.10;60.06
28510;BME280;15723;55.684;37.928;2022-11-02T08:33:01;99886.53;;;5.26;60.37
28510;BME280;15723;55.684;37.928;2022-11-02T08:35:28;99887.09;;;5.34;60.02
28510;BME280;15723;55.684;37.928;2022-11-02T08:37:54;99888.97;;;5.52;60.21
28510;BME280;15723;55.684;37.928;2022-11-02T08:40:21;99887.88;;;5.56;60.11
28510;BME280;15723;55.684;37.928;2022-11-02T08:42:47;99882.91;;;5.47;60.58
28510;BME280;15723;55.684;37.928;2022-11-02T08:45:14;99886.00;;;5.38;60.44
28510;BME280;15723;55.684;37.928;2022-11-02T08:47:42;99885.16;;;5.16;60.20
28510;BME280;15723;55.684;37.928;2022-11-02T08:50:08;99884.00;;;5.23;60.20
28510;BME280;15723;55.684;37.928;2022-11-02T08:52:35;99887.47;;;5.45;60.51
28510;BME280;15723;55.684;37.928;2022-11-02T08:55:01;99888.28;;;5.68;59.48
28510;BME280;15723;55.684;37.928;2022-11-02T08:57:28;99888.28;;;5.27;59.76
28510;BME280;15723;55.684;37.928;2022-11-02T08:59:54;99879.34;;;5.47;60.29
28510;BME280;15723;55.684;37.928;2022-11-02T09:02:20;99882.94;;;5.05;59.67
28510;BME280;15723;55.684;37.928;2022-11-02T09:04:46;99881.16;;;5.46;59.00
28510;BME280;15723;55.684;37.928;2022-11-02T09:07:12;99876.19;;;5.37;59.99
28510;BME280;15723;55.684;37.928;2022-11-02T09:09:39;99873.31;;;5.81;57.88
28510;BME280;15723;55.684;37.928;2022-11-02T09:12:05;99880.28;;;5.66;58.73
28510;BME280;15723;55.684;37.928;2022-11-02T09:14:31;99885.66;;;5.46;60.35
28510;BME280;15723;55.684;37.928;2022-11-02T09:16:57;99881.59;;;5.15;60.22
28510;BME280;15723;55.684;37.928;2022-11-02T09:19:23;99880.00;;;5.52;60.03
28510;BME280;15723;55.684;37.928;2022-11-02T09:21:50;99877.09;;;5.77;59.33
28510;BME280;15723;55.684;37.928;2022-11-02T09:24:16;99877.66;;;5.64;58.23
28510;BME280;15723;55.684;37.928;2022-11-02T09:26:42;99883.19;;;5.61;58.52
28510;BME280;15723;55.684;37.928;2022-11-02T09:29:08;99875.56;;;5.51;58.65
28510;BME280;15723;55.684;37.928;2022-11-02T09:31:34;99871.75;;;6.35;57.51
28510;BME280;15723;55.684;37.928;2022-11-02T09:34:00;99876.22;;;5.76;59.25
28510;BME280;15723;55.684;37.928;2022-11-02T09:36:26;99873.66;;;5.93;58.77
28510;BME280;15723;55.684;37.928;2022-11-02T09:38:52;99874.41;;;5.97;58.01
28510;BME280;15723;55.684;37.928;2022-11-02T09:46:45;99867.84;;;5.43;59.22
28510;BME280;15723;55.684;37.928;2022-11-02T09:49:14;99867.41;;;5.12;59.50
28510;BME280;15723;55.684;37.928;2022-11-02T09:51:45;99869.13;;;5.34;60.49
28510;BME280;15723;55.684;37.928;2022-11-02T09:56:38;99866.16;;;5.61;58.61
28510;BME280;15723;55.684;37.928;2022-11-02T09:59:23;99863.28;;;6.05;57.49
28510;BME280;15723;55.684;37.928;2022-11-02T10:01:55;99862.56;;;6.20;57.61
28510;BME280;15723;55.684;37.928;2022-11-02T10:04:37;99869.53;;;5.85;57.83
28510;BME280;15723;55.684;37.928;2022-11-02T10:07:22;99873.88;;;5.69;57.81
28510;BME280;15723;55.684;37.928;2022-11-02T10:15:09;99873.41;;;5.39;58.25
28510;BME280;15723;55.684;37.928;2022-11-02T10:17:36;99871.28;;;5.26;57.72
28510;BME280;15723;55.684;37.928;2022-11-02T10:20:10;99880.75;;;5.55;57.77
28510;BME280;15723;55.684;37.928;2022-11-02T10:22:41;99879.28;;;5.48;57.71
28510;BME280;15723;55.684;37.928;2022-11-02T10:25:09;99864.25;;;5.02;57.42
28510;BME280;15723;55.684;37.928;2022-11-02T10:27:38;99873.34;;;5.40;57.09
28510;BME280;15723;55.684;37.928;2022-11-02T10:32:31;99875.69;;;5.68;56.38
28510;BME280;15723;55.684;37.928;2022-11-02T10:34:57;99873.09;;;5.85;56.20
28510;BME280;15723;55.684;37.928;2022-11-02T10:43:07;99874.13;;;6.03;55.72
28510;BME280;15723;55.684;37.928;2022-11-02T10:45:42;99879.22;;;6.09;55.82
28510;BME280;15723;55.684;37.928;2022-11-02T10:51:07;99877.56;;;5.86;55.00
28510;BME280;15723;55.684;37.928;2022-11-02T10:53:41;99884.38;;;5.54;54.92
28510;BME280;15723;55.684;37.928;2022-11-02T10:56:20;99885.81;;;5.63;55.91
28510;BME280;15723;55.684;37.928;2022-11-02T11:01:14;99886.69;;;5.23;54.70
28510;BME280;15723;55.684;37.928;2022-11-02T11:06:26;99884.00;;;5.63;54.83
28510;BME280;15723;55.684;37.928;2022-11-02T11:08:57;99875.97;;;5.42;55.92
28510;BME280;15723;55.684;37.928;2022-11-02T11:11:24;99876.25;;;5.97;54.64
28510;BME280;15723;55.684;37.928;2022-11-02T11:13:53;99876.22;;;5.76;54.43
28510;BME280;15723;55.684;37.928;2022-11-02T11:16:41;99875.94;;;5.82;54.36
28510;BME280;15723;55.684;37.928;2022-11-02T11:19:15;99874.84;;;5.86;53.47
28510;BME280;15723;55.684;37.928;2022-11-02T11:21:44;99881.53;;;5.57;54.02
28510;BME280;15723;55.684;37.928;2022-11-02T11:24:44;99870.63;;;5.81;54.31
28510;BME280;15723;55.684;37.928;2022-11-02T11:27:11;99876.44;;;5.31;54.79
28510;BME280;15723;55.684;37.928;2022-11-02T11:29:39;99880.00;;;5.52;54.71
28510;BME280;15723;55.684;37.928;2022-11-02T11:32:12;99876.38;;;5.32;54.29
28510;BME280;15723;55.684;37.928;2022-11-02T11:34:39;99865.13;;;5.63;54.82
28510;BME280;15723;55.684;37.928;2022-11-02T11:37:08;99875.38;;;5.35;54.54
28510;BME280;15723;55.684;37.928;2022-11-02T11:39:35;99878.47;;;5.67;53.96
28510;BME280;15723;55.684;37.928;2022-11-02T11:42:03;99872.63;;;5.37;54.28
28510;BME280;15723;55.684;37.928;2022-11-02T11:44:30;99873.41;;;5.18;54.84
28510;BME280;15723;55.684;37.928;2022-11-02T11:46:56;99869.03;;;5.36;54.46
28510;BME280;15723;55.684;37.928;2022-11-02T11:51:50;99867.84;;;5.43;54.62
28510;BME280;15723;55.684;37.928;2022-11-02T11:54:21;99875.69;;;5.07;55.30
28510;BME280;15723;55.684;37.928;2022-11-02T11:56:50;99876.53;;;5.29;54.47
28510;BME280;15723;55.684;37.928;2022-11-02T11:59:26;99870.72;;;5.39;54.51
28510;BME280;15723;55.684;37.928;2022-11-02T12:01:56;99870.50;;;6.04;53.70
28510;BME280;15723;55.684;37.928;2022-11-02T12:04:27;99869.41;;;5.88;53.80
28510;BME280;15723;55.684;37.928;2022-11-02T12:06:57;99877.31;;;5.72;54.69
28510;BME280;15723;55.684;37.928;2022-11-02T12:10:11;99872.78;;;5.93;54.72
28510;BME280;15723;55.684;37.928;2022-11-02T12:12:32;99882.03;;;5.67;55.22
28510;BME280;15723;55.684;37.928;2022-11-02T12:20:34;99875.00;;;4.80;56.95
28510;BME280;15723;55.684;37.928;2022-11-02T12:25:50;99871.81;;;5.34;56.18
28510;BME280;15723;55.684;37.928;2022-11-02T12:46:43;99897.09;;;5.51;55.73
28510;BME280;15723;55.684;37.928;2022-11-02T12:54:38;99910.50;;;5.52;55.45
28510;BME280;15723;55.684;37.928;2022-11-02T12:57:09;99908.53;;;5.76;55.49
28510;BME280;15723;55.684;37.928;2022-11-02T12:59:36;99916.97;;;5.28;55.67
28510;BME280;15723;55.684;37.928;2022-11-02T13:05:01;99915.53;;;5.40;56.18
28510;BME280;15723;55.684;37.928;2022-11-02T13:12:44;99916.28;;;5.43;56.57
28510;BME280;15723;55.684;37.928;2022-11-02T13:15:14;99916.81;;;5.31;56.77
28510;BME280;15723;55.684;37.928;2022-11-02T13:17:43;99914.47;;;5.23;56.87
28510;BME280;15723;55.684;37.928;2022-11-02T13:22:47;99910.44;;;5.12;57.34
28510;BME280;15723;55.684;37.928;2022-11-02T13:25:19;99924.66;;;4.50;58.55
28510;BME280;15723;55.684;37.928;2022-11-02T13:27:52;99924.97;;;4.64;58.07
28510;BME280;15723;55.684;37.928;2022-11-02T13:30:20;99921.50;;;4.38;59.12
28510;BME280;15723;55.684;37.928;2022-11-02T13:33:29;99925.19;;;4.36;58.97
28510;BME280;15723;55.684;37.928;2022-11-02T13:35:38;99928.78;;;4.13;59.13
28510;BME280;15723;55.684;37.928;2022-11-02T13:46:28;99938.25;;;3.98;59.07
28510;BME280;15723;55.684;37.928;2022-11-02T13:49:02;99940.81;;;4.01;58.68
28510;BME280;15723;55.684;37.928;2022-11-02T13:51:37;99942.91;;;4.18;58.62
28510;BME280;15723;55.684;37.928;2022-11-02T13:54:06;99946.22;;;2.72;61.72
28510;BME280;15723;55.684;37.928;2022-11-02T13:56:36;99948.22;;;2.36;62.62
28510;BME280;15723;55.684;37.928;2022-11-02T13:59:03;99937.03;;;2.79;62.04
28510;BME280;15723;55.684;37.928;2022-11-02T14:01:31;99942.44;;;2.50;62.66
28510;BME280;15723;55.684;37.928;2022-11-02T14:04:05;99938.38;;;2.37;63.05
28510;BME280;15723;55.684;37.928;2022-11-02T14:06:41;99935.03;;;2.30;63.35
28510;BME280;15723;55.684;37.928;2022-11-02T14:09:09;99947.69;;;2.25;63.34
28510;BME280;15723;55.684;37.928;2022-11-02T14:27:00;99945.75;;;1.99;64.20
28510;BME280;15723;55.684;37.928;2022-11-02T14:32:04;99936.44;;;2.12;64.33
28510;BME280;15723;55.684;37.928;2022-11-02T14:34:55;99934.50;;;2.17;64.33
28510;BME280;15723;55.684;37.928;2022-11-02T14:45:23;99940.56;;;2.24;63.94
28510;BME280;15723;55.684;37.928;2022-11-02T14:47:55;99949.72;;;1.84;64.67
28510;BME280;15723;55.684;37.928;2022-11-02T14:50:22;99947.78;;;1.91;64.68
28510;BME280;15723;55.684;37.928;2022-11-02T14:52:58;99940.72;;;1.88;64.84
28510;BME280;15723;55.684;37.928;2022-11-02T14:55:28;99944.38;;;1.86;65.02
28510;BME280;15723;55.684;37.928;2022-11-02T15:02:48;99939.28;;;2.06;64.53
28510;BME280;15723;55.684;37.928;2022-11-02T15:05:19;99942.53;;;1.88;64.68
28510;BME280;15723;55.684;37.928;2022-11-02T15:07:48;99942.75;;;1.79;65.38
28510;BME280;15723;55.684;37.928;2022-11-02T15:12:45;99948.22;;;2.07;64.54
28510;BME280;15723;55.684;37.928;2022-11-02T15:15:29;99948.75;;;1.88;64.83
28510;BME280;15723;55.684;37.928;2022-11-02T15:20:31;99948.94;;;1.50;64.75
28510;BME280;15723;55.684;37.928;2022-11-02T15:25:47;99941.41;;;1.64;64.62
28510;BME280;15723;55.684;37.928;2022-11-02T15:28:19;99939.94;;;1.83;64.53
28510;BME280;15723;55.684;37.928;2022-11-02T15:30:50;99932.41;;;1.98;64.03
28510;BME280;15723;55.684;37.928;2022-11-02T15:33:19;99939.28;;;2.06;63.54
28510;BME280;15723;55.684;37.928;2022-11-02T15:35:47;99943.91;;;1.70;64.54
28510;BME280;15723;55.684;37.928;2022-11-02T15:38:16;99951.53;;;1.84;64.42
28510;BME280;15723;55.684;37.928;2022-11-02T15:40:46;99941.75;;;1.83;64.74